sensor_id;sensor_type;location;lat;lon;timestamp;P1;P2;P0
53698;PMS7003;68408;53.952;27.612;2024-02-28T01:54:45;22;17.8;13.4
53698;PMS7003;68408;53.952;27.612;2024-02-28T01:59:16;23.5;18.7;14.3
53698;PMS7003;68408;53.952;27.612;2024-02-28T02:04:23;23.2;18;13.5
53698;PMS7003;68408;53.952;27.612;2024-02-28T02:09:16;22.9;19.3;14.1
53698;PMS7003;68408;53.952;27.612;2024-02-28T02:14:23;25.1;20.7;15.1
53698;PMS7003;68408;53.952;27.612;2024-02-28T02:19:15;26.3;21.9;16.6
53698;PMS7003;68408;53.952;27.612;2024-02-28T02:24:21;27.6;23.5;16.6
53698;PMS7003;68408;53.952;27.612;2024-02-28T02:29:39;27.6;23.1;16.8
53698;PMS7003;68408;53.952;27.612;2024-02-28T02:34:29;29.6;22.8;15.6
53698;PMS7003;68408;53.952;27.612;2024-02-28T02:39:32;29.6;22.9;16
53698;PMS7003;68408;53.952;27.612;2024-02-28T02:44:45;26.1;21.2;15.6
53698;PMS7003;68408;53.952;27.612;2024-02-28T02:49:38;27.9;22.8;16.2
53698;PMS7003;68408;53.952;27.612;2024-02-28T02:54:29;27.4;22.7;15.9
53698;PMS7003;68408;53.952;27.612;2024-02-28T02:59:18;29.7;23.1;16.2
53698;PMS7003;68408;53.952;27.612;2024-02-28T03:04:18;30.4;23.8;17.1
53698;PMS7003;68408;53.952;27.612;2024-02-28T03:09:33;27.5;23.1;16.8
53698;PMS7003;68408;53.952;27.612;2024-02-28T03:14:36;30.5;24.2;17.9
53698;PMS7003;68408;53.952;27.612;2024-02-28T03:19:25;34;27.6;19
53698;PMS7003;68408;53.952;27.612;2024-02-28T03:24:53;34.6;28.6;20.3
53698;PMS7003;68408;53.952;27.612;2024-02-28T03:29:34;32.1;26.3;19.2
53698;PMS7003;68408;53.952;27.612;2024-02-28T03:34:26;37.4;31;21.7
53698;PMS7003;68408;53.952;27.612;2024-02-28T03:39:24;42.1;35;25
53698;PMS7003;68408;53.952;27.612;2024-02-28T03:44:23;45.6;36.8;25.5
53698;PMS7003;68408;53.952;27.612;2024-02-28T03:49:23;42.6;34.9;24.3
53698;PMS7003;68408;53.952;27.612;2024-02-28T03:54:16;32.7;26.3;18.2
53698;PMS7003;68408;53.952;27.612;2024-02-28T03:59:40;26.5;22.4;16.6
53698;PMS7003;68408;53.952;27.612;2024-02-28T04:04:41;27.8;23;16.7
53698;PMS7003;68408;53.952;27.612;2024-02-28T04:09:32;28.3;22;15.6
53698;PMS7003;68408;53.952;27.612;2024-02-28T04:14:58;25;19.5;13.2
53698;PMS7003;68408;53.952;27.612;2024-02-28T04:19:48;26.6;22.6;17.2
53698;PMS7003;68408;53.952;27.612;2024-02-28T04:24:42;26.7;23;17.4
53698;PMS7003;68408;53.952;27.612;2024-02-28T04:29:48;31.2;26.2;19.3
53698;PMS7003;68408;53.952;27.612;2024-02-28T04:34:42;33.6;28.1;20.7
53698;PMS7003;68408;53.952;27.612;2024-02-28T04:39:34;30.1;25.3;18.3
53698;PMS7003;68408;53.952;27.612;2024-02-28T04:44:24;30.4;25.1;17.9
53698;PMS7003;68408;53.952;27.612;2024-02-28T04:49:36;32.3;26.2;19.3
53698;PMS7003;68408;53.952;27.612;2024-02-28T04:54:18;29.7;25.1;17.6
53698;PMS7003;68408;53.952;27.612;2024-02-28T04:59:54;29.1;22.6;16.9
53698;PMS7003;68408;53.952;27.612;2024-02-28T05:04:36;28.6;24.2;18.5
53698;PMS7003;68408;53.952;27.612;2024-02-28T05:09:46;29.9;24.7;17.9
53698;PMS7003;68408;53.952;27.612;2024-02-28T05:14:24;30.6;24.7;18.3
53698;PMS7003;68408;53.952;27.612;2024-02-28T05:19:16;31.8;25.8;18.2
53698;PMS7003;68408;53.952;27.612;2024-02-28T05:24:16;33.7;28.3;20.3
53698;PMS7003;68408;53.952;27.612;2024-02-28T05:29:16;31.8;27.2;19.7
53698;PMS7003;68408;53.952;27.612;2024-02-28T05:34:16;35.5;28.5;20.4
53698;PMS7003;68408;53.952;27.612;2024-02-28T05:39:56;35.3;29.4;20.3
53698;PMS7003;68408;53.952;27.612;2024-02-28T05:44:46;36.4;30.1;20.9
53698;PMS7003;68408;53.952;27.612;2024-02-28T05:49:48;40.9;32.4;22.6
53698;PMS7003;68408;53.952;27.612;2024-02-28T05:54:54;39.2;31.7;21.7
53698;PMS7003;68408;53.952;27.612;2024-02-28T05:59:32;38.5;30.4;21.1
53698;PMS7003;68408;53.952;27.612;2024-02-28T06:04:56;38.1;30.4;21.7
53698;PMS7003;68408;53.952;27.612;2024-02-28T06:09:56;37;29.4;20.4
53698;PMS7003;68408;53.952;27.612;2024-02-28T06:14:46;37.8;30.1;20.7
53698;PMS7003;68408;53.952;27.612;2024-02-28T06:19:32;38.4;30.7;21.5
53698;PMS7003;68408;53.952;27.612;2024-02-28T06:24:18;37.4;30.9;21.8
53698;PMS7003;68408;53.952;27.612;2024-02-28T06:29:46;37.1;30.6;21.4
53698;PMS7003;68408;53.952;27.612;2024-02-28T06:34:56;36;29.1;20.2
53698;PMS7003;68408;53.952;27.612;2024-02-28T06:39:24;37;29.6;21.4
53698;PMS7003;68408;53.952;27.612;2024-02-28T06:44:56;37.9;30.2;21.5
53698;PMS7003;68408;53.952;27.612;2024-02-28T06:49:16;36.3;29.9;20.9
53698;PMS7003;68408;53.952;27.612;2024-02-28T06:54:16;38.5;31.2;21.6
53698;PMS7003;68408;53.952;27.612;2024-02-28T06:59:36;38.6;32.1;22
53698;PMS7003;68408;53.952;27.612;2024-02-28T07:04:24;39;32.4;23
53698;PMS7003;68408;53.952;27.612;2024-02-28T07:09:37;41.4;34.6;23.4
53698;PMS7003;68408;53.952;27.612;2024-02-28T07:14:24;44.8;35.3;24.6
53698;PMS7003;68408;53.952;27.612;2024-02-28T07:19:18;41.5;34.6;24.3
53698;PMS7003;68408;53.952;27.612;2024-02-28T07:24:32;39.9;31.8;22.8
53698;PMS7003;68408;53.952;27.612;2024-02-28T07:29:56;41.3;33.5;23.1
53698;PMS7003;68408;53.952;27.612;2024-02-28T07:34:24;39.9;33;22.3
53698;PMS7003;68408;53.952;27.612;2024-02-28T07:39:42;32.7;28.6;20.7
53698;PMS7003;68408;53.952;27.612;2024-02-28T07:44:42;32.9;27.6;20.1
53698;PMS7003;68408;53.952;27.612;2024-02-28T07:49:38;28.4;23.7;17.7
53698;PMS7003;68408;53.952;27.612;2024-02-28T07:54:16;28.5;22.5;16.6
53698;PMS7003;68408;53.952;27.612;2024-02-28T07:59:38;29.2;22.6;16.1
53698;PMS7003;68408;53.952;27.612;2024-02-28T08:04:46;26.8;22.4;16.4
53698;PMS7003;68408;53.952;27.612;2024-02-28T08:09:56;28.2;23.4;16.4
53698;PMS7003;68408;53.952;27.612;2024-02-28T08:14:36;21.4;18.2;12.8
53698;PMS7003;68408;53.952;27.612;2024-02-28T08:19:56;26.5;22.6;16.3
53698;PMS7003;68408;53.952;27.612;2024-02-28T08:24:56;30.6;24.5;17.6
53698;PMS7003;68408;53.952;27.612;2024-02-28T08:29:46;26.7;22.1;15.6
53698;PMS7003;68408;53.952;27.612;2024-02-28T08:34:28;28.6;25;17.2
53698;PMS7003;68408;53.952;27.612;2024-02-28T08:39:24;33.5;27.2;19.9
53698;PMS7003;68408;53.952;27.612;2024-02-28T08:44:24;32.6;25.4;17.9
53698;PMS7003;68408;53.952;27.612;2024-02-28T08:49:32;37.2;29.8;21
53698;PMS7003;68408;53.952;27.612;2024-02-28T08:54:24;37.8;29.7;20.9
53698;PMS7003;68408;53.952;27.612;2024-02-28T08:59:32;34;28.6;19.5
53698;PMS7003;68408;53.952;27.612;2024-02-28T09:04:42;29.1;24.9;18.2
53698;PMS7003;68408;53.952;27.612;2024-02-28T09:09:32;35.6;28.1;20.2
53698;PMS7003;68408;53.952;27.612;2024-02-28T09:14:56;34;27.3;19.9
53698;PMS7003;68408;53.952;27.612;2024-02-28T09:19:26;31.7;27.2;19.4
53698;PMS7003;68408;53.952;27.612;2024-02-28T09:24:42;29.7;25.9;18.9
53698;PMS7003;68408;53.952;27.612;2024-02-28T09:29:48;32.6;27.7;19.4
53698;PMS7003;68408;53.952;27.612;2024-02-28T09:34:42;36.3;29.2;20.9
53698;PMS7003;68408;53.952;27.612;2024-02-28T09:39:46;34.2;28.9;20.5
53698;PMS7003;68408;53.952;27.612;2024-02-28T09:44:24;34.5;28.3;20.2
53698;PMS7003;68408;53.952;27.612;2024-02-28T09:49:16;32.5;25.6;18.4
53698;PMS7003;68408;53.952;27.612;2024-02-28T09:54:46;35.5;28.9;20.1
53698;PMS7003;68408;53.952;27.612;2024-02-28T09:59:56;31.3;26.4;19
53698;PMS7003;68408;53.952;27.612;2024-02-28T10:04:28;32.9;27.7;19.3
53698;PMS7003;68408;53.952;27.612;2024-02-28T10:09:38;33.7;27.4;18.9
53698;PMS7003;68408;53.952;27.612;2024-02-28T10:14:32;31.9;26.7;18.6
53698;PMS7003;68408;53.952;27.612;2024-02-28T10:19:24;30.4;25.4;17.8
53698;PMS7003;68408;53.952;27.612;2024-02-28T10:24:36;26.7;22.7;16.3
53698;PMS7003;68408;53.952;27.612;2024-02-28T10:29:24;32.3;25.8;18.4
53698;PMS7003;68408;53.952;27.612;2024-02-28T10:34:36;34;27.9;19.6
53698;PMS7003;68408;53.952;27.612;2024-02-28T10:39:56;29.1;24.9;18.3
53698;PMS7003;68408;53.952;27.612;2024-02-28T10:44:46;33.6;28.4;20
53698;PMS7003;68408;53.952;27.612;2024-02-28T10:49:42;30.1;25.9;19.2
53698;PMS7003;68408;53.952;27.612;2024-02-28T10:54:56;32.3;27.6;19.3
53698;PMS7003;68408;53.952;27.612;2024-02-28T10:59:32;31.2;25.3;18.4
53698;PMS7003;68408;53.952;27.612;2024-02-28T11:04:56;29.6;24.9;17.8
53698;PMS7003;68408;53.952;27.612;2024-02-28T11:09:56;28.5;24;16.8
53698;PMS7003;68408;53.952;27.612;2024-02-28T11:14:55;30.4;25.9;17.7
53698;PMS7003;68408;53.952;27.612;2024-02-28T11:19:32;28.4;23;16.9
53698;PMS7003;68408;53.952;27.612;2024-02-28T11:24:34;29.4;24.5;18.3
53698;PMS7003;68408;53.952;27.612;2024-02-28T11:29:30;26.1;22.1;16.8
53698;PMS7003;68408;53.952;27.612;2024-02-28T11:34:56;31.3;26.3;18.9
53698;PMS7003;68408;53.952;27.612;2024-02-28T11:39:36;32.6;26.7;19.1
53698;PMS7003;68408;53.952;27.612;2024-02-28T11:44:56;31.8;26;18.3
53698;PMS7003;68408;53.952;27.612;2024-02-28T11:49:46;30.8;25.7;18.6
53698;PMS7003;68408;53.952;27.612;2024-02-28T11:54:54;35;28.7;20.6
53698;PMS7003;68408;53.952;27.612;2024-02-28T11:59:24;34.1;27.7;19.6
53698;PMS7003;68408;53.952;27.612;2024-02-28T12:04:24;32.6;27.2;19.5
53698;PMS7003;68408;53.952;27.612;2024-02-28T12:09:46;32.5;26.9;19.5
53698;PMS7003;68408;53.952;27.612;2024-02-28T12:14:16;31.7;26.4;19
53698;PMS7003;68408;53.952;27.612;2024-02-28T12:19:46;28.4;24.3;17.7
53698;PMS7003;68408;53.952;27.612;2024-02-28T12:24:32;29.6;24.5;17.1
53698;PMS7003;68408;53.952;27.612;2024-02-28T12:29:48;32.2;26;18.2
53698;PMS7003;68408;53.952;27.612;2024-02-28T12:34:16;29.7;24.6;16.4
53698;PMS7003;68408;53.952;27.612;2024-02-28T12:39:44;27.6;23.5;16.3
53698;PMS7003;68408;53.952;27.612;2024-02-28T12:44:56;24.6;20.2;14.4
53698;PMS7003;68408;53.952;27.612;2024-02-28T12:49:18;26.2;21.2;15
53698;PMS7003;68408;53.952;27.612;2024-02-28T12:54:56;28.4;24.6;17.5
53698;PMS7003;68408;53.952;27.612;2024-02-28T12:59:42;32.3;27;18.9
53698;PMS7003;68408;53.952;27.612;2024-02-28T13:04:46;30.7;25.7;18.3
53698;PMS7003;68408;53.952;27.612;2024-02-28T13:09:56;25.4;21.1;15.1
53698;PMS7003;68408;53.952;27.612;2024-02-28T13:14:16;25.3;20.3;14.8
53698;PMS7003;68408;53.952;27.612;2024-02-28T13:19:56;22.7;18.7;13.7
53698;PMS7003;68408;53.952;27.612;2024-02-28T13:24:36;21.9;18.8;14.1
53698;PMS7003;68408;53.952;27.612;2024-02-28T13:29:24;23.1;19.3;13.3
53698;PMS7003;68408;53.952;27.612;2024-02-28T13:34:24;20.9;18.1;13.5
53698;PMS7003;68408;53.952;27.612;2024-02-28T13:39:16;19.1;16.1;11.9
53698;PMS7003;68408;53.952;27.612;2024-02-28T13:44:28;21.1;18;13.2
53698;PMS7003;68408;53.952;27.612;2024-02-28T13:49:24;20.9;17.1;13.2
53698;PMS7003;68408;53.952;27.612;2024-02-28T13:54:46;22.9;18.5;13.7
53698;PMS7003;68408;53.952;27.612;2024-02-28T13:59:24;21.8;18.4;13.3
53698;PMS7003;68408;53.952;27.612;2024-02-28T14:04:56;23;19.7;14.1
53698;PMS7003;68408;53.952;27.612;2024-02-28T14:09:42;23.8;20.6;14.6
53698;PMS7003;68408;53.952;27.612;2024-02-28T14:14:56;24.3;19.7;14.5
53698;PMS7003;68408;53.952;27.612;2024-02-28T14:19:24;22.8;18.3;13
53698;PMS7003;68408;53.952;27.612;2024-02-28T14:24:34;22.2;17.3;12.5
53698;PMS7003;68408;53.952;27.612;2024-02-28T14:29:24;20.7;17.4;12.7
53698;PMS7003;68408;53.952;27.612;2024-02-28T14:34:32;16.7;13.7;9.7
53698;PMS7003;68408;53.952;27.612;2024-02-28T14:39:54;18.1;15.9;12
53698;PMS7003;68408;53.952;27.612;2024-02-28T14:44:46;19.9;17.1;12.2
53698;PMS7003;68408;53.952;27.612;2024-02-28T14:49:28;18.3;16.5;12.1
53698;PMS7003;68408;53.952;27.612;2024-02-28T14:54:48;21.2;17.2;12.7
53698;PMS7003;68408;53.952;27.612;2024-02-28T14:59:56;21.8;16.4;11.3
53698;PMS7003;68408;53.952;27.612;2024-02-28T15:04:38;20.2;17.1;12.1
53698;PMS7003;68408;53.952;27.612;2024-02-28T15:09:16;20.9;17.5;12.7
53698;PMS7003;68408;53.952;27.612;2024-02-28T15:14:24;22.4;17.5;12.8
53698;PMS7003;68408;53.952;27.612;2024-02-28T15:19:18;22.9;18.1;13.6
53698;PMS7003;68408;53.952;27.612;2024-02-28T15:24:24;21.9;17.9;13.3
53698;PMS7003;68408;53.952;27.612;2024-02-28T15:29:16;19.9;16.7;12.2
53698;PMS7003;68408;53.952;27.612;2024-02-28T15:34:32;20.6;17.2;12.5
53698;PMS7003;68408;53.952;27.612;2024-02-28T15:39:34;21.3;17.7;13
53698;PMS7003;68408;53.952;27.612;2024-02-28T15:44:24;20.4;16.4;11.6
53698;PMS7003;68408;53.952;27.612;2024-02-28T15:49:56;24.3;19.6;14.8
53698;PMS7003;68408;53.952;27.612;2024-02-28T15:54:46;21.9;18.3;13.7
53698;PMS7003;68408;53.952;27.612;2024-02-28T15:59:42;23.6;19.5;14.4
53698;PMS7003;68408;53.952;27.612;2024-02-28T16:04:24;21.8;18.5;13.4
53698;PMS7003;68408;53.952;27.612;2024-02-28T16:09:32;22.2;18;13.4
53698;PMS7003;68408;53.952;27.612;2024-02-28T16:14:46;19.6;16;12
53698;PMS7003;68408;53.952;27.612;2024-02-28T16:19:32;22.5;18.2;14.2
53698;PMS7003;68408;53.952;27.612;2024-02-28T16:24:28;22.8;18.7;14
53698;PMS7003;68408;53.952;27.612;2024-02-28T16:29:30;22.7;19.9;14.9
53698;PMS7003;68408;53.952;27.612;2024-02-28T16:34:56;24.2;19.3;14.2
53698;PMS7003;68408;53.952;27.612;2024-02-28T16:39:36;22.4;18.5;14
53698;PMS7003;68408;53.952;27.612;2024-02-28T16:44:38;22.4;18.6;13.9
53698;PMS7003;68408;53.952;27.612;2024-02-28T16:49:24;22.8;18.1;13.7
53698;PMS7003;68408;53.952;27.612;2024-02-28T16:54:16;23.5;19.6;14.1
53698;PMS7003;68408;53.952;27.612;2024-02-28T16:59:32;20.2;17.1;12.7
53698;PMS7003;68408;53.952;27.612;2024-02-28T17:04:32;17.5;15.1;11.7
53698;PMS7003;68408;53.952;27.612;2024-02-28T17:14:47;19.5;16.2;12.1
53698;PMS7003;68408;53.952;27.612;2024-02-28T17:19:32;19.3;15.3;11.3
53698;PMS7003;68408;53.952;27.612;2024-02-28T17:24:48;17.7;15.1;11.4
53698;PMS7003;68408;53.952;27.612;2024-02-28T17:29:46;18.6;16.3;12.1
53698;PMS7003;68408;53.952;27.612;2024-02-28T17:34:42;17.9;14.8;11.5
53698;PMS7003;68408;53.952;27.612;2024-02-28T17:39:24;17.2;14.3;11.2
53698;PMS7003;68408;53.952;27.612;2024-02-28T17:44:34;21.4;18.1;13.5
53698;PMS7003;68408;53.952;27.612;2024-02-28T17:49:44;19;15.8;12.3
53698;PMS7003;68408;53.952;27.612;2024-02-28T17:54:30;19.6;16.4;12.6
53698;PMS7003;68408;53.952;27.612;2024-02-28T17:59:36;19.2;15.8;11.8
53698;PMS7003;68408;53.952;27.612;2024-02-28T18:04:46;16.4;14.4;11.2
53698;PMS7003;68408;53.952;27.612;2024-02-28T18:09:54;18.5;15;11.3
53698;PMS7003;68408;53.952;27.612;2024-02-28T18:14:37;15;12;9
53698;PMS7003;68408;53.952;27.612;2024-02-28T18:19:26;19;15.5;11.6
53698;PMS7003;68408;53.952;27.612;2024-02-28T18:24:16;19.4;15.5;11.8
53698;PMS7003;68408;53.952;27.612;2024-02-28T18:29:38;18.1;14.8;11.4
53698;PMS7003;68408;53.952;27.612;2024-02-28T18:34:24;18.1;15;11.6
53698;PMS7003;68408;53.952;27.612;2024-02-28T18:39:34;17.4;14.6;11.3
53698;PMS7003;68408;53.952;27.612;2024-02-28T18:44:36;19.5;16.4;12.3
53698;PMS7003;68408;53.952;27.612;2024-02-28T18:49:54;19;14.5;11
53698;PMS7003;68408;53.952;27.612;2024-02-28T18:54:46;19.1;14.7;12
53698;PMS7003;68408;53.952;27.612;2024-02-28T18:59:54;17.5;14.7;11.4
53698;PMS7003;68408;53.952;27.612;2024-02-28T19:04:54;18.1;14.9;11
53698;PMS7003;68408;53.952;27.612;2024-02-28T19:09:38;18.3;15.2;11.3
53698;PMS7003;68408;53.952;27.612;2024-02-28T19:14:54;16.2;13.3;9.9
53698;PMS7003;68408;53.952;27.612;2024-02-28T19:19:54;17.8;14.7;11.6
53698;PMS7003;68408;53.952;27.612;2024-02-28T19:24:44;18.3;15.3;11.4
53698;PMS7003;68408;53.952;27.612;2024-02-28T19:29:16;17.9;15;11.4
53698;PMS7003;68408;53.952;27.612;2024-02-28T19:34:18;13.4;11;7.9
53698;PMS7003;68408;53.952;27.612;2024-02-28T19:39:46;18.7;15.9;11.7
53698;PMS7003;68408;53.952;27.612;2024-02-28T19:44:54;20.4;16;11.5
53698;PMS7003;68408;53.952;27.612;2024-02-28T19:49:36;18.7;15.4;11.5
53698;PMS7003;68408;53.952;27.612;2024-02-28T19:54:54;16.9;13.2;9.8
53698;PMS7003;68408;53.952;27.612;2024-02-28T19:59:16;18.2;15.2;11.7
53698;PMS7003;68408;53.952;27.612;2024-02-28T20:04:16;18.5;15.7;11.8
53698;PMS7003;68408;53.952;27.612;2024-02-28T20:09:28;19.7;15.7;11.5
53698;PMS7003;68408;53.952;27.612;2024-02-28T20:14:16;19.2;15.7;11.7
53698;PMS7003;68408;53.952;27.612;2024-02-28T20:19:24;20.1;16.1;12
53698;PMS7003;68408;53.952;27.612;2024-02-28T20:24:24;19.1;15.8;11.4
53698;PMS7003;68408;53.952;27.612;2024-02-28T20:29:46;18.9;15.5;12.2
53698;PMS7003;68408;53.952;27.612;2024-02-28T20:34:32;20;16.8;12.8
53698;PMS7003;68408;53.952;27.612;2024-02-28T20:39:54;24.9;20.3;15
53698;PMS7003;68408;53.952;27.612;2024-02-28T20:44:32;20.3;16.8;12.9
53698;PMS7003;68408;53.952;27.612;2024-02-28T20:49:54;23.9;18.9;13.6
53698;PMS7003;68408;53.952;27.612;2024-02-28T20:54:30;20.4;16.9;12.8
53698;PMS7003;68408;53.952;27.612;2024-02-28T20:59:44;21.5;17.8;12.5
53698;PMS7003;68408;53.952;27.612;2024-02-28T21:04:30;19;15.5;10.8
53698;PMS7003;68408;53.952;27.612;2024-02-28T21:09:41;22.3;17.8;12.1
53698;PMS7003;68408;53.952;27.612;2024-02-28T21:14:54;22.6;18.7;13.8
53698;PMS7003;68408;53.952;27.612;2024-02-28T21:19:44;22.4;17.9;13.1
53698;PMS7003;68408;53.952;27.612;2024-02-28T21:24:28;23.6;18.4;12.8
53698;PMS7003;68408;53.952;27.612;2024-02-28T21:29:54;24.2;19.6;14.1
53698;PMS7003;68408;53.952;27.612;2024-02-28T21:34:36;23.6;19.7;14.7
53698;PMS7003;68408;53.952;27.612;2024-02-28T21:39:22;22.6;19;13.7
53698;PMS7003;68408;53.952;27.612;2024-02-28T21:44:16;23.3;19;14
53698;PMS7003;68408;53.952;27.612;2024-02-28T21:49:39;27.2;22.1;15.6
53698;PMS7003;68408;53.952;27.612;2024-02-28T21:54:16;23.8;19.5;14.3
53698;PMS7003;68408;53.952;27.612;2024-02-28T21:59:16;24.7;20.5;15.1
53698;PMS7003;68408;53.952;27.612;2024-02-28T22:04:46;23.6;20.6;15.7
53698;PMS7003;68408;53.952;27.612;2024-02-28T22:09:24;23.2;19.8;14.8
53698;PMS7003;68408;53.952;27.612;2024-02-28T22:14:46;23.2;20.2;15.3
53698;PMS7003;68408;53.952;27.612;2024-02-28T22:19:16;23.1;18.7;13.1
53698;PMS7003;68408;53.952;27.612;2024-02-28T22:24:54;24.3;19.5;14.2
53698;PMS7003;68408;53.952;27.612;2024-02-28T22:29:30;24.7;21.1;14.7
53698;PMS7003;68408;53.952;27.612;2024-02-28T22:34:44;23.6;18.6;12.7
53698;PMS7003;68408;53.952;27.612;2024-02-28T22:39:54;24.3;20.6;15.3
53698;PMS7003;68408;53.952;27.612;2024-02-28T22:44:40;23;20.9;15.2
53698;PMS7003;68408;53.952;27.612;2024-02-28T22:49:54;25.8;21.8;15.4
53698;PMS7003;68408;53.952;27.612;2024-02-28T22:54:36;24.3;19.9;14.6
53698;PMS7003;68408;53.952;27.612;2024-02-28T22:59:37;27.4;21.5;15.5
53698;PMS7003;68408;53.952;27.612;2024-02-28T23:04:54;26.3;22.3;15.9
53698;PMS7003;68408;53.952;27.612;2024-02-28T23:09:54;25.5;21.9;16.2
53698;PMS7003;68408;53.952;27.612;2024-02-28T23:14:46;26.6;22.2;16.1
53698;PMS7003;68408;53.952;27.612;2024-02-28T23:19:36;29.5;23.3;17.4
53698;PMS7003;68408;53.952;27.612;2024-02-28T23:24:32;27.4;23.5;17.1
53698;PMS7003;68408;53.952;27.612;2024-02-28T23:29:24;28.6;23.2;17.1
53698;PMS7003;68408;53.952;27.612;2024-02-28T23:34:38;29.8;24.3;17.5
53698;PMS7003;68408;53.952;27.612;2024-02-28T23:39:24;28.9;25.7;18.3
53698;PMS7003;68408;53.952;27.612;2024-02-28T23:44:32;30.4;25.6;18.2
53698;PMS7003;68408;53.952;27.612;2024-02-28T23:49:40;28.9;24;17.8
53698;PMS7003;68408;53.952;27.612;2024-02-28T23:54:32;30.2;24.2;17.4
53698;PMS7003;68408;53.952;27.612;2024-02-28T23:59:46;29;24.2;17
